Time;durP1;ratioP1;P1;durP2;ratioP2;P2;SDS_P1;SDS_P2;PMS_P1;PMS_P2;Temp;Humidity;BMP_temperature;BMP_pressure;BME280_temperature;BME280_humidity;BME280_pressure;Samples;Min_cycle;Max_cycle;Signal;HPM_P1;HPM_P2
2022/02/09 00:04:15;;;;;;;20.33;12.33;;;5.00;99.90;;;;;;4984625;28;20192;-71
2022/02/09 00:07:09;;;;;;;13.90;8.73;;;4.90;99.90;;;;;;5031894;28;20206;-71
2022/02/09 00:09:56;;;;;;;21.00;9.87;;;5.00;99.90;;;;;;5031678;28;20268;-70
2022/02/09 00:12:49;;;;;;;18.60;10.30;;;5.00;99.90;;;;;;5090188;27;20277;-71
2022/02/09 00:15:44;;;;;;;24.20;13.33;;;5.00;99.90;;;;;;5114630;27;20235;-70
2022/02/09 00:18:38;;;;;;;19.87;13.13;;;5.10;99.90;;;;;;5117362;27;21193;-71
2022/02/09 00:21:36;;;;;;;19.60;11.10;;;5.00;99.90;;;;;;5111840;28;20190;-71
2022/02/09 00:24:47;;;;;;;19.17;11.40;;;5.10;99.90;;;;;;5110625;27;20199;-70
2022/02/09 00:31:27;;;;;;;16.97;11.13;;;5.10;99.90;;;;;;5106647;27;20214;-70
2022/02/09 00:34:33;;;;;;;14.03;7.57;;;5.10;99.90;;;;;;5120085;27;20259;-70
2022/02/09 01:33:14;;;;;;;18.53;12.17;;;5.10;99.90;;;;;;4875667;29;20233;-71
2022/02/09 01:39:14;;;;;;;19.07;11.83;;;5.10;99.90;;;;;;4929250;29;20213;-70
2022/02/09 01:57:35;;;;;;;16.83;9.30;;;5.20;99.90;;;;;;4988485;28;20698;-71
2022/02/09 02:00:22;;;;;;;17.13;9.27;;;5.20;99.90;;;;;;4986181;28;20211;-71
2022/02/09 02:03:10;;;;;;;15.30;9.27;;;5.20;99.90;;;;;;4987039;28;20718;-71
2022/02/09 02:05:57;;;;;;;15.93;10.07;;;5.20;99.90;;;;;;4996600;28;20198;-70
2022/02/09 02:08:45;;;;;;;16.17;9.53;;;5.20;99.90;;;;;;5036442;28;20210;-71
2022/02/09 02:11:39;;;;;;;15.00;8.73;;;5.20;99.90;;;;;;5039734;28;20237;-70
2022/02/09 02:14:33;;;;;;;14.17;8.87;;;5.30;99.90;;;;;;5032384;28;20237;-70
2022/02/09 02:17:27;;;;;;;15.80;8.80;;;5.30;99.90;;;;;;5015975;28;20662;-70
2022/02/09 02:20:28;;;;;;;11.90;7.10;;;5.20;99.90;;;;;;5017697;28;20207;-70
2022/02/09 02:23:34;;;;;;;16.07;8.47;;;5.20;99.90;;;;;;5015159;28;20626;-70
2022/02/09 02:26:37;;;;;;;16.20;9.53;;;5.30;99.90;;;;;;5024346;28;20205;-70
2022/02/09 02:35:58;;;;;;;14.03;8.50;;;5.30;99.90;;;;;;5094778;28;20191;-70
2022/02/09 02:39:10;;;;;;;15.40;7.93;;;5.30;99.90;;;;;;5093000;28;20215;-71
2022/02/09 02:58:17;;;;;;;21.40;10.53;;;5.30;99.90;;;;;;5039811;28;20211;-70
2022/02/09 03:13:37;;;;;;;36.83;18.43;;;5.00;99.90;;;;;;5003955;28;20209;-71
2022/02/09 03:16:32;;;;;;;36.30;20.23;;;5.00;99.90;;;;;;5005086;28;20576;-70
2022/02/09 03:19:42;;;;;;;40.73;20.30;;;4.90;99.90;;;;;;5006247;28;20737;-71
2022/02/09 03:22:41;;;;;;;159.47;23.17;;;4.90;99.90;;;;;;5000073;28;20203;-71
2022/02/09 03:25:51;;;;;;;77.00;20.77;;;4.90;99.90;;;;;;5003815;28;20249;-70
2022/02/09 03:47:25;;;;;;;949.03;40.83;;;4.70;99.90;;;;;;4942729;28;20577;-70
2022/02/09 03:50:36;;;;;;;601.13;31.97;;;4.70;99.90;;;;;;5002076;28;20205;-70
2022/02/09 03:53:35;;;;;;;301.27;19.60;;;4.70;99.90;;;;;;5004916;28;20317;-70
2022/02/09 03:56:29;;;;;;;641.30;33.77;;;4.70;99.90;;;;;;4991204;28;20204;-70
2022/02/09 03:59:16;;;;;;;667.83;34.97;;;4.70;99.90;;;;;;4990347;28;20201;-70
2022/02/09 04:02:05;;;;;;;500.93;30.30;;;4.70;99.90;;;;;;4989703;28;20297;-71
2022/02/09 04:04:57;;;;;;;630.13;33.93;;;4.70;99.90;;;;;;4989814;28;20286;-70
2022/02/09 04:07:44;;;;;;;707.77;38.10;;;4.70;99.90;;;;;;4986104;28;20586;-70
2022/02/09 04:10:37;;;;;;;585.17;31.40;;;4.70;99.90;;;;;;4990118;28;20230;-70
2022/02/09 04:13:33;;;;;;;481.87;28.90;;;4.60;99.90;;;;;;4989927;28;20555;-70
2022/02/09 04:16:35;;;;;;;369.20;22.63;;;4.60;99.90;;;;;;5070069;28;20201;-70
2022/02/09 04:19:32;;;;;;;604.87;33.97;;;4.60;99.90;;;;;;5071764;28;20196;-70
2022/02/09 04:37:59;;;;;;;120.53;21.33;;;4.60;99.90;;;;;;4985783;28;20576;-70
2022/02/09 04:47:23;;;;;;;38.83;18.80;;;4.60;99.90;;;;;;4952150;28;20691;-70
2022/02/09 04:50:19;;;;;;;35.57;19.53;;;4.60;99.90;;;;;;4950521;28;20192;-70
2022/02/09 04:54:10;;;;;;;38.33;19.73;;;4.60;99.90;;;;;;4949721;28;20255;-71
2022/02/09 04:56:40;;;;;;;35.27;19.67;;;4.60;99.90;;;;;;4951316;28;20220;-70
2022/02/09 04:59:37;;;;;;;38.03;20.20;;;4.60;99.90;;;;;;4955780;28;20205;-70
2022/02/09 05:02:44;;;;;;;35.90;19.10;;;4.60;99.90;;;;;;4950804;28;20211;-70
2022/02/09 05:17:46;;;;;;;38.60;19.33;;;4.60;99.90;;;;;;4951294;28;20196;-70
2022/02/09 05:18:23;;;;;;;161.33;22.37;;;4.60;99.90;;;;;;5024280;28;20204;-71
2022/02/09 05:21:45;;;;;;;124.27;17.77;;;4.60;99.90;;;;;;5071547;28;20208;-71
2022/02/09 05:24:46;;;;;;;73.13;19.33;;;4.60;99.90;;;;;;5062853;28;20216;-70
2022/02/09 05:27:47;;;;;;;73.87;20.83;;;4.60;99.90;;;;;;5068024;28;20285;-70
2022/02/09 05:30:34;;;;;;;109.37;24.07;;;4.50;99.90;;;;;;5067364;28;20727;-71
2022/02/09 05:33:22;;;;;;;94.57;22.10;;;4.60;99.90;;;;;;5068843;28;20560;-70
2022/02/09 05:36:10;;;;;;;50.00;19.67;;;4.50;99.90;;;;;;5068450;28;20208;-70
2022/02/09 05:38:57;;;;;;;60.17;21.90;;;4.60;99.90;;;;;;5066934;28;20588;-71
2022/02/09 05:41:47;;;;;;;106.23;27.47;;;4.60;99.90;;;;;;5060960;28;20208;-70
2022/02/09 05:44:34;;;;;;;61.90;21.30;;;4.60;99.90;;;;;;5065606;28;20228;-71
2022/02/09 05:50:31;;;;;;;37.53;15.10;;;4.60;99.90;;;;;;5058541;28;20285;-71
2022/02/09 05:53:23;;;;;;;39.13;14.57;;;4.60;99.90;;;;;;5063439;28;20196;-71
2022/02/09 05:56:21;;;;;;;37.53;15.20;;;4.60;99.90;;;;;;5061817;28;20224;-71
2022/02/09 05:59:28;;;;;;;45.60;13.90;;;4.60;99.90;;;;;;5053420;28;20634;-71
2022/02/09 06:02:16;;;;;;;54.70;15.67;;;4.60;99.90;;;;;;5060152;28;20200;-70
2022/02/09 06:05:04;;;;;;;249.80;19.90;;;4.60;99.90;;;;;;5059319;28;20214;-70
2022/02/09 06:07:51;;;;;;;382.47;23.17;;;4.60;99.90;;;;;;5060949;28;20687;-71
2022/02/09 06:10:40;;;;;;;462.33;25.33;;;4.60;99.90;;;;;;5066374;28;20228;-70
2022/02/09 06:13:44;;;;;;;722.80;34.47;;;4.50;99.90;;;;;;5070561;28;20196;-70
2022/02/09 06:19:46;;;;;;;721.67;43.00;;;4.60;99.90;;;;;;5061568;28;20228;-70
2022/02/09 06:22:33;;;;;;;897.47;47.47;;;4.50;99.90;;;;;;5055045;28;20197;-70
2022/02/09 06:25:22;;;;;;;832.27;48.33;;;4.50;99.90;;;;;;5062054;28;20230;-70
2022/02/09 06:28:09;;;;;;;824.57;49.80;;;4.50;99.90;;;;;;5064553;28;20197;-70
2022/02/09 06:30:57;;;;;;;961.53;54.40;;;4.50;99.90;;;;;;5056750;28;20664;-70
2022/02/09 06:33:46;;;;;;;476.47;32.43;;;4.50;99.90;;;;;;5069698;28;20207;-70
2022/02/09 06:36:38;;;;;;;458.50;33.37;;;4.60;99.90;;;;;;5069126;28;20200;-70
2022/02/09 06:39:44;;;;;;;302.87;27.07;;;4.50;99.90;;;;;;5035151;28;20708;-70
2022/02/09 06:42:34;;;;;;;208.80;25.83;;;4.60;99.90;;;;;;5015550;28;20748;-70
2022/02/09 06:45:25;;;;;;;123.63;25.67;;;4.60;99.90;;;;;;5039261;28;20239;-70
2022/02/09 06:48:12;;;;;;;58.97;25.53;;;4.60;99.90;;;;;;5020842;28;20720;-70
2022/02/09 06:51:07;;;;;;;93.40;26.50;;;4.60;99.90;;;;;;5026734;28;20324;-71
2022/02/09 06:54:02;;;;;;;91.83;25.97;;;4.60;99.90;;;;;;5031312;28;20209;-70
2022/02/09 06:57:03;;;;;;;48.30;22.57;;;4.60;99.90;;;;;;5032147;28;20668;-70
2022/02/09 06:59:51;;;;;;;53.17;25.43;;;4.70;99.90;;;;;;5064090;28;20199;-70
2022/02/09 07:02:41;;;;;;;42.33;22.33;;;4.70;99.90;;;;;;5065439;28;20208;-71
2022/02/09 07:05:28;;;;;;;47.97;23.50;;;4.70;99.90;;;;;;5061086;28;20216;-70
2022/02/09 07:08:18;;;;;;;50.17;23.93;;;4.70;99.90;;;;;;5063595;28;20332;-70
2022/02/09 07:11:05;;;;;;;46.90;22.27;;;4.70;99.90;;;;;;5058568;28;20227;-70
2022/02/09 07:13:53;;;;;;;54.03;25.67;;;4.70;99.90;;;;;;5059146;28;20551;-71
2022/02/09 07:16:41;;;;;;;55.40;24.97;;;4.70;99.90;;;;;;5062133;28;20209;-70
2022/02/09 07:19:30;;;;;;;41.80;19.83;;;4.70;99.90;;;;;;5063951;28;20683;-71
2022/02/09 07:22:23;;;;;;;39.37;21.30;;;4.70;99.90;;;;;;5062048;28;20205;-71
2022/02/09 07:25:15;;;;;;;35.27;17.40;;;4.70;99.90;;;;;;5061913;28;20267;-71
2022/02/09 07:28:04;;;;;;;33.73;16.20;;;4.70;99.90;;;;;;5080038;28;20200;-70
2022/02/09 07:30:51;;;;;;;70.73;25.13;;;4.70;99.90;;;;;;5081945;28;20690;-70
2022/02/09 07:33:41;;;;;;;61.37;23.83;;;4.80;99.90;;;;;;5073229;28;20215;-71
2022/02/09 07:36:31;;;;;;;85.63;20.70;;;4.70;99.90;;;;;;5070940;28;20680;-71
2022/02/09 07:39:21;;;;;;;78.83;25.23;;;4.80;99.90;;;;;;5081361;28;20242;-70
2022/02/09 07:42:13;;;;;;;124.50;26.67;;;4.80;99.90;;;;;;5079603;28;20706;-71
2022/02/09 07:45:20;;;;;;;53.17;22.97;;;4.80;99.90;;;;;;5050599;28;20278;-71
2022/02/09 07:51:37;;;;;;;64.90;21.60;;;4.80;99.90;;;;;;5047965;28;20562;-71
2022/02/09 07:54:26;;;;;;;35.13;15.30;;;4.80;99.90;;;;;;5051778;28;20206;-71
2022/02/09 07:57:15;;;;;;;34.27;16.27;;;4.80;99.90;;;;;;5051717;28;20661;-70
2022/02/09 08:00:02;;;;;;;34.57;16.40;;;4.90;99.90;;;;;;5052053;28;20201;-70
2022/02/09 08:02:52;;;;;;;35.07;17.37;;;4.90;99.90;;;;;;5054562;28;20219;-70
2022/02/09 08:05:39;;;;;;;32.90;15.30;;;4.90;99.90;;;;;;5051629;28;20221;-69
2022/02/09 08:08:30;;;;;;;35.63;17.93;;;4.90;99.90;;;;;;5062758;28;20276;-69
2022/02/09 08:11:22;;;;;;;39.60;16.90;;;4.90;99.90;;;;;;5057104;28;20220;-70
2022/02/09 08:20:34;;;;;;;18.77;8.53;;;5.10;99.90;;;;;;5060568;28;20572;-71
2022/02/09 08:29:42;;;;;;;21.20;10.47;;;5.10;99.90;;;;;;5062864;28;20226;-69
2022/02/09 08:32:39;;;;;;;23.20;11.00;;;5.00;99.90;;;;;;5051947;28;20205;-69
2022/02/09 08:35:27;;;;;;;22.27;12.03;;;5.00;99.90;;;;;;5054430;28;20201;-71
2022/02/09 08:38:15;;;;;;;23.33;11.40;;;5.00;99.90;;;;;;5052470;28;20209;-70
2022/02/09 08:41:02;;;;;;;18.73;10.70;;;5.10;99.90;;;;;;5038566;28;20254;-72
2022/02/09 08:43:50;;;;;;;22.43;12.07;;;5.10;99.90;;;;;;5052458;28;20236;-71
2022/02/09 08:46:40;;;;;;;16.23;8.53;;;5.00;99.90;;;;;;5077276;28;20205;-72
2022/02/09 08:49:28;;;;;;;20.23;11.23;;;5.10;99.90;;;;;;5082104;28;20200;-71
2022/02/09 08:52:16;;;;;;;24.47;12.17;;;5.10;99.90;;;;;;5081317;28;20684;-71
2022/02/09 08:55:04;;;;;;;20.77;10.80;;;5.10;99.90;;;;;;5069201;28;20192;-71
2022/02/09 08:57:52;;;;;;;18.83;10.30;;;5.10;99.90;;;;;;5076369;28;20253;-71
2022/02/09 09:00:40;;;;;;;18.80;10.87;;;5.20;99.90;;;;;;5064792;28;20260;-71
2022/02/09 09:03:35;;;;;;;20.87;10.93;;;5.20;99.90;;;;;;5066002;28;20202;-71
2022/02/09 09:06:26;;;;;;;17.43;9.33;;;5.20;99.90;;;;;;5066034;28;20221;-70
2022/02/09 09:09:25;;;;;;;19.73;10.70;;;5.20;99.90;;;;;;5048670;28;20219;-70
2022/02/09 09:18:58;;;;;;;19.47;10.57;;;5.30;99.90;;;;;;5068884;28;20185;-72
2022/02/09 10:02:55;;;;;;;28.70;15.60;;;5.60;99.90;;;;;;4979913;28;20243;-71
2022/02/09 10:31:06;;;;;;;35.80;20.30;;;5.60;99.90;;;;;;5049761;28;20192;-72
2022/02/09 10:33:55;;;;;;;30.20;16.00;;;5.70;99.90;;;;;;5039205;28;20217;-72
2022/02/09 10:36:47;;;;;;;32.67;18.30;;;5.70;99.90;;;;;;5050389;28;20204;-71
2022/02/09 10:39:48;;;;;;;21.03;12.57;;;5.70;99.90;;;;;;5048776;28;20212;-72
2022/02/09 10:42:38;;;;;;;29.23;14.17;;;5.80;99.90;;;;;;5047804;28;20218;-71
2022/02/09 10:45:32;;;;;;;32.70;17.40;;;5.80;99.90;;;;;;5062783;28;20209;-72
2022/02/09 10:48:32;;;;;;;31.80;17.27;;;5.90;99.90;;;;;;5073273;28;20659;-71
2022/02/09 10:51:26;;;;;;;21.17;10.57;;;5.90;99.90;;;;;;5058863;28;20217;-72
2022/02/09 10:54:16;;;;;;;29.97;15.83;;;6.00;99.90;;;;;;5062811;28;20209;-72
2022/02/09 10:57:07;;;;;;;30.23;16.87;;;5.90;99.90;;;;;;5065553;28;20193;-72
2022/02/09 10:59:56;;;;;;;38.07;21.63;;;5.90;99.90;;;;;;5069191;28;20208;-71
2022/02/09 11:02:44;;;;;;;36.73;20.37;;;6.00;99.90;;;;;;5063623;28;20201;-71
2022/02/09 11:05:33;;;;;;;36.87;18.50;;;6.00;99.90;;;;;;5064121;28;20221;-72
2022/02/09 11:08:21;;;;;;;30.37;17.40;;;6.10;99.90;;;;;;5060065;28;20210;-70
2022/02/09 11:11:08;;;;;;;32.97;19.13;;;6.00;99.90;;;;;;5067260;28;20588;-71
2022/02/09 11:13:57;;;;;;;31.60;18.30;;;6.10;99.90;;;;;;5078675;28;20345;-71
2022/02/09 11:16:46;;;;;;;37.83;18.17;;;6.20;99.90;;;;;;5066583;28;20563;-72
2022/02/09 11:19:37;;;;;;;31.83;16.60;;;6.20;99.90;;;;;;5072205;28;20282;-72
2022/02/09 11:22:28;;;;;;;23.43;12.57;;;6.20;99.90;;;;;;5066102;28;20207;-71
2022/02/09 11:25:20;;;;;;;29.77;15.90;;;6.20;99.90;;;;;;5078037;28;20700;-72
2022/02/09 11:28:32;;;;;;;28.77;16.77;;;6.30;99.90;;;;;;5070786;28;20241;-71
2022/02/09 11:31:27;;;;;;;28.63;15.93;;;6.30;99.90;;;;;;5067448;28;20202;-71
2022/02/09 11:34:19;;;;;;;25.63;14.47;;;6.40;99.90;;;;;;5072277;28;20201;-71
2022/02/09 11:37:12;;;;;;;31.00;16.43;;;6.40;99.90;;;;;;5079242;28;20203;-71
2022/02/09 11:40:02;;;;;;;25.57;15.70;;;6.50;99.90;;;;;;5072719;28;20215;-72
2022/02/09 11:42:58;;;;;;;30.83;16.70;;;6.40;99.90;;;;;;5074441;28;20198;-72
2022/02/09 11:46:06;;;;;;;28.77;15.17;;;6.40;99.90;;;;;;5070500;28;20214;-71
2022/02/09 11:52:53;;;;;;;28.47;17.00;;;6.50;99.90;;;;;;5065564;28;20213;-71
2022/02/09 11:59:17;;;;;;;27.13;16.17;;;6.40;99.90;;;;;;5064787;28;20226;-72
2022/02/09 12:08:52;;;;;;;31.43;17.73;;;6.50;99.90;;;;;;5072959;28;20584;-71
2022/02/09 12:11:59;;;;;;;30.30;17.00;;;6.50;99.90;;;;;;5066684;28;20212;-72
2022/02/09 12:14:53;;;;;;;30.93;18.33;;;6.50;99.90;;;;;;5067743;28;20655;-72
2022/02/09 12:17:51;;;;;;;27.03;15.70;;;6.50;99.90;;;;;;5065065;28;20234;-72
2022/02/09 12:20:47;;;;;;;28.87;17.67;;;6.60;99.90;;;;;;5066213;28;20204;-71
2022/02/09 12:23:39;;;;;;;29.87;16.23;;;6.60;99.90;;;;;;5066012;28;20201;-71
2022/02/09 12:26:27;;;;;;;31.33;17.33;;;6.60;99.90;;;;;;5063785;28;20241;-71
2022/02/09 12:29:15;;;;;;;29.87;18.03;;;6.60;99.90;;;;;;5067063;28;20657;-72
2022/02/09 12:32:04;;;;;;;32.87;18.07;;;6.60;99.90;;;;;;5066544;28;20214;-72
2022/02/09 12:34:56;;;;;;;32.07;17.77;;;6.60;99.90;;;;;;5070007;28;20272;-72
2022/02/09 12:37:46;;;;;;;34.50;20.00;;;6.60;99.90;;;;;;5072029;28;20424;-72
2022/02/09 12:40:35;;;;;;;39.37;21.00;;;6.60;99.90;;;;;;5059605;28;20194;-71
2022/02/09 12:43:23;;;;;;;39.10;21.03;;;6.60;99.90;;;;;;5064905;28;20618;-72
2022/02/09 12:46:10;;;;;;;39.97;20.07;;;6.50;99.90;;;;;;5066349;28;20219;-72
2022/02/09 12:49:05;;;;;;;34.87;19.17;;;6.50;99.90;;;;;;5067318;28;20731;-71
2022/02/09 12:51:53;;;;;;;39.73;20.07;;;6.40;99.90;;;;;;5076186;28;20288;-72
2022/02/09 12:54:42;;;;;;;38.50;20.27;;;6.40;99.90;;;;;;5077167;28;20205;-72
2022/02/09 12:57:35;;;;;;;41.83;22.83;;;6.40;99.90;;;;;;5080519;28;20195;-72
2022/02/09 13:00:25;;;;;;;36.87;19.97;;;6.40;99.90;;;;;;5079627;28;20209;-72
2022/02/09 13:03:14;;;;;;;31.27;17.67;;;6.50;99.90;;;;;;5069986;28;20202;-71
2022/02/09 13:06:03;;;;;;;37.03;20.90;;;6.50;99.90;;;;;;5073228;28;20315;-72
2022/02/09 13:08:54;;;;;;;40.37;22.10;;;6.50;99.90;;;;;;5067558;28;20383;-72
2022/02/09 13:11:44;;;;;;;38.53;19.67;;;6.60;99.90;;;;;;5065021;28;20660;-71
2022/02/09 13:14:36;;;;;;;32.30;18.77;;;6.50;99.90;;;;;;5069097;28;20696;-72
2022/02/09 13:17:28;;;;;;;35.83;21.40;;;6.60;99.90;;;;;;5067555;28;20212;-72
2022/02/09 13:20:34;;;;;;;38.23;21.90;;;6.60;99.90;;;;;;5069083;28;20199;-72
2022/02/09 13:23:52;;;;;;;38.20;20.27;;;6.60;99.90;;;;;;5068924;28;20214;-72
2022/02/09 14:13:54;;;;;;;41.50;24.77;;;6.70;99.90;;;;;;4918058;29;20199;-72
2022/02/09 14:54:07;;;;;;;22.43;12.43;;;6.50;99.90;;;;;;4884675;29;20317;-72
2022/02/09 14:56:59;;;;;;;23.43;13.53;;;6.50;99.90;;;;;;4926803;28;21242;-72
2022/02/09 15:00:04;;;;;;;22.70;13.17;;;6.50;99.90;;;;;;5026250;28;20205;-71
2022/02/09 15:03:02;;;;;;;21.03;12.67;;;6.40;99.90;;;;;;5060063;28;20575;-71
2022/02/09 15:06:24;;;;;;;20.60;10.57;;;6.30;99.90;;;;;;5062494;28;20277;-71
2022/02/09 15:09:16;;;;;;;21.07;11.30;;;6.30;99.90;;;;;;5073536;28;20225;-72
2022/02/09 15:12:16;;;;;;;17.83;11.00;;;6.30;99.90;;;;;;5069165;28;20232;-71
2022/02/09 15:15:14;;;;;;;18.50;10.70;;;6.30;99.90;;;;;;5068808;28;20350;-71
2022/02/09 15:22:03;;;;;;;19.03;11.77;;;6.30;99.90;;;;;;5057965;28;20296;-71
2022/02/09 15:24:57;;;;;;;21.60;12.77;;;6.30;99.90;;;;;;5067720;28;20194;-72
2022/02/09 15:27:46;;;;;;;21.53;12.83;;;6.20;99.90;;;;;;5070997;28;20234;-72
2022/02/09 15:30:43;;;;;;;17.70;11.53;;;6.20;99.90;;;;;;5064195;28;20223;-71
2022/02/09 15:33:37;;;;;;;19.37;11.30;;;6.20;99.90;;;;;;5067666;28;20197;-71
2022/02/09 15:36:44;;;;;;;21.00;12.20;;;6.20;99.90;;;;;;5071086;28;20210;-72
2022/02/09 15:39:37;;;;;;;23.13;13.60;;;6.20;99.90;;;;;;5064816;28;20548;-72
2022/02/09 15:42:53;;;;;;;22.90;10.97;;;6.20;99.90;;;;;;5064669;28;20572;-71
2022/02/09 15:58:23;;;;;;;19.80;11.27;;;6.20;99.90;;;;;;5047089;28;20202;-72
2022/02/09 16:10:48;;;;;;;19.37;10.97;;;6.30;99.90;;;;;;5046761;28;20313;-73
2022/02/09 16:17:09;;;;;;;19.67;11.80;;;6.20;99.90;;;;;;5043196;28;20541;-72
2022/02/09 16:23:13;;;;;;;20.33;11.00;;;6.20;99.90;;;;;;4987045;28;20205;-72
2022/02/09 16:26:18;;;;;;;26.03;13.17;;;6.20;99.90;;;;;;4988160;28;20230;-73
2022/02/09 16:38:51;;;;;;;27.37;13.57;;;6.20;99.90;;;;;;5014410;28;20205;-72
2022/02/09 16:44:45;;;;;;;26.03;13.97;;;6.20;99.90;;;;;;5015832;28;20268;-72
2022/02/09 16:47:55;;;;;;;29.37;14.67;;;6.20;99.90;;;;;;5017490;28;20330;-72
2022/02/09 16:50:49;;;;;;;26.77;14.47;;;6.20;99.90;;;;;;5015974;28;20201;-72
2022/02/09 16:53:47;;;;;;;23.97;13.67;;;6.20;99.90;;;;;;5015126;28;20231;-72
2022/02/09 17:21:47;;;;;;;31.30;17.10;;;6.20;99.90;;;;;;4900798;29;20640;-72
2022/02/09 17:24:34;;;;;;;33.20;18.90;;;6.20;99.90;;;;;;4898406;29;20206;-70
2022/02/09 17:27:28;;;;;;;33.83;18.20;;;6.10;99.90;;;;;;4895580;29;20270;-69
2022/02/09 17:36:42;;;;;;;30.73;16.83;;;6.10;99.90;;;;;;4891232;29;20230;-69
2022/02/09 17:58:07;;;;;;;19.87;10.83;;;5.80;99.90;;;;;;4977779;28;20619;-69
2022/02/09 18:00:56;;;;;;;25.83;13.60;;;5.80;99.90;;;;;;4978154;28;20827;-69
2022/02/09 18:03:44;;;;;;;17.70;10.23;;;5.80;99.90;;;;;;4973238;28;20688;-69
2022/02/09 18:06:32;;;;;;;20.90;10.97;;;5.70;99.90;;;;;;4971823;28;20367;-69
2022/02/09 18:09:28;;;;;;;24.57;11.07;;;5.70;99.90;;;;;;4983977;28;20209;-69
2022/02/09 18:12:23;;;;;;;19.77;10.00;;;5.70;99.90;;;;;;5059292;28;20196;-69
2022/02/09 18:15:37;;;;;;;19.40;10.70;;;5.60;99.90;;;;;;5067287;28;20212;-70
2022/02/09 18:28:12;;;;;;;20.73;11.50;;;5.40;99.90;;;;;;5075112;28;20218;-70
2022/02/09 18:31:08;;;;;;;29.17;12.67;;;5.40;99.90;;;;;;5065702;28;20213;-69
2022/02/09 18:34:19;;;;;;;23.37;11.50;;;5.40;99.90;;;;;;5061376;28;20335;-71
2022/02/09 18:43:36;;;;;;;21.40;10.00;;;5.30;99.90;;;;;;5068124;28;20233;-70
2022/02/09 18:46:33;;;;;;;20.90;11.50;;;5.20;99.90;;;;;;5066996;28;20240;-71
2022/02/09 19:02:01;;;;;;;32.70;15.13;;;5.10;99.90;;;;;;5063689;28;20568;-70
2022/02/09 19:05:01;;;;;;;29.60;13.77;;;5.00;99.90;;;;;;5057229;28;20548;-70
2022/02/09 19:14:23;;;;;;;28.80;14.60;;;5.00;99.90;;;;;;5019435;28;20193;-70
2022/02/09 19:17:21;;;;;;;27.33;14.23;;;5.00;99.90;;;;;;5014644;28;20201;-74
2022/02/09 19:20:25;;;;;;;28.40;15.50;;;5.00;99.90;;;;;;5032648;28;20209;-73
2022/02/09 19:26:32;;;;;;;30.90;15.07;;;5.00;99.90;;;;;;5038368;28;20189;-73
2022/02/09 19:32:33;;;;;;;27.43;14.23;;;5.00;99.90;;;;;;5040682;28;20710;-74
2022/02/09 19:48:03;;;;;;;21.87;11.40;;;4.90;99.90;;;;;;5002603;28;20230;-73
2022/02/09 19:51:06;;;;;;;21.77;11.80;;;4.90;99.90;;;;;;4998726;28;20287;-74
2022/02/09 19:54:07;;;;;;;21.50;11.33;;;4.90;99.90;;;;;;5000437;28;20211;-73
2022/02/09 19:57:01;;;;;;;19.70;10.47;;;4.90;99.90;;;;;;5002097;28;20210;-74
2022/02/09 19:59:50;;;;;;;20.67;11.03;;;4.90;99.90;;;;;;4999487;28;20203;-73
2022/02/09 20:02:45;;;;;;;20.43;10.93;;;4.90;99.90;;;;;;5002689;28;20737;-73
2022/02/09 20:05:33;;;;;;;22.57;11.20;;;4.90;99.90;;;;;;5002032;28;20200;-73
2022/02/09 20:08:22;;;;;;;19.30;11.67;;;4.90;99.90;;;;;;5002071;28;20215;-73
2022/02/09 20:11:14;;;;;;;21.53;10.97;;;4.90;99.90;;;;;;4998075;28;20215;-73
2022/02/09 20:14:01;;;;;;;19.83;11.90;;;4.90;99.90;;;;;;5001660;28;20200;-73
2022/02/09 20:16:50;;;;;;;22.30;12.20;;;4.90;99.90;;;;;;5000844;28;20199;-73
2022/02/09 20:19:39;;;;;;;23.27;12.10;;;4.80;99.90;;;;;;5001485;28;20253;-73
2022/02/09 20:22:26;;;;;;;24.13;13.60;;;4.80;99.90;;;;;;5008421;28;20235;-73
2022/02/09 20:25:17;;;;;;;21.23;13.00;;;4.80;99.90;;;;;;5070244;28;20690;-73
2022/02/09 20:28:06;;;;;;;27.63;13.50;;;4.90;99.90;;;;;;5073937;28;20230;-73
2022/02/09 20:30:59;;;;;;;21.97;13.60;;;4.90;99.90;;;;;;5068767;28;20585;-73
2022/02/09 20:33:52;;;;;;;27.50;14.77;;;4.90;99.90;;;;;;5074679;28;20614;-72
2022/02/09 20:36:42;;;;;;;26.47;14.47;;;4.90;99.90;;;;;;5068435;28;20228;-73
2022/02/09 20:39:36;;;;;;;25.27;14.17;;;4.90;99.90;;;;;;5071751;28;20210;-73
2022/02/09 20:42:26;;;;;;;25.13;14.83;;;4.90;99.90;;;;;;5068022;28;20201;-72
2022/02/09 20:45:20;;;;;;;29.20;13.97;;;4.90;99.90;;;;;;5070472;28;20206;-73
2022/02/09 20:48:13;;;;;;;26.27;14.60;;;4.90;99.90;;;;;;5070610;28;20208;-72
2022/02/09 20:51:02;;;;;;;15.43;8.40;;;4.90;99.90;;;;;;5068407;28;20325;-72
2022/02/09 20:53:50;;;;;;;23.10;12.77;;;4.90;99.90;;;;;;5069891;28;20200;-72
2022/02/09 20:56:38;;;;;;;24.00;13.53;;;4.90;99.90;;;;;;5069848;28;20201;-72
2022/02/09 20:59:29;;;;;;;23.03;13.40;;;4.90;99.90;;;;;;5072645;28;20214;-73
2022/02/09 21:02:32;;;;;;;23.13;13.17;;;4.90;99.90;;;;;;5066763;28;20204;-73
2022/02/09 21:05:32;;;;;;;24.80;12.77;;;4.90;99.90;;;;;;5064580;28;20583;-73
2022/02/09 21:08:40;;;;;;;21.57;12.17;;;4.90;99.90;;;;;;5066204;28;20277;-72
2022/02/09 21:11:41;;;;;;;23.87;12.70;;;4.90;99.90;;;;;;5066166;28;20217;-73
2022/02/09 21:14:50;;;;;;;20.17;11.90;;;4.90;99.90;;;;;;5078262;28;20674;-72
2022/02/09 21:20:55;;;;;;;25.63;11.70;;;4.80;99.90;;;;;;5072029;28;20620;-73
2022/02/09 21:45:53;;;;;;;25.27;13.47;;;4.70;99.90;;;;;;4922129;29;20205;-72
2022/02/09 21:54:52;;;;;;;28.97;12.87;;;4.70;99.90;;;;;;4871567;29;20208;-74
2022/02/09 21:57:52;;;;;;;26.40;12.23;;;4.70;99.90;;;;;;4871490;29;20210;-73
2022/02/09 22:00:58;;;;;;;26.50;12.50;;;4.70;99.90;;;;;;4869875;29;20207;-73
2022/02/09 22:16:42;;;;;;;25.80;12.43;;;4.60;99.90;;;;;;5006163;28;20633;-73
2022/02/09 22:19:33;;;;;;;29.73;12.77;;;4.70;99.90;;;;;;4999431;28;20198;-73
2022/02/09 22:22:39;;;;;;;26.37;11.87;;;4.70;99.90;;;;;;5002517;28;20202;-73
2022/02/09 22:28:43;;;;;;;26.93;13.07;;;4.70;99.90;;;;;;4948090;29;20236;-73
2022/02/09 22:31:38;;;;;;;27.87;11.20;;;4.70;99.90;;;;;;4962983;28;20208;-73
2022/02/09 22:34:56;;;;;;;28.03;12.53;;;4.60;99.90;;;;;;4985341;28;20214;-73
2022/02/09 22:50:26;;;;;;;24.03;10.93;;;4.80;99.90;;;;;;4993124;28;20305;-74
2022/02/09 22:56:21;;;;;;;23.30;10.73;;;4.80;99.90;;;;;;5001223;28;20197;-73
2022/02/09 22:59:16;;;;;;;23.03;10.90;;;4.80;99.90;;;;;;4984521;28;20190;-73
2022/02/09 23:02:10;;;;;;;27.83;11.97;;;4.80;99.90;;;;;;5005971;28;20203;-73
2022/02/09 23:05:24;;;;;;;23.37;11.70;;;4.70;99.90;;;;;;5045049;28;20282;-73
2022/02/09 23:08:32;;;;;;;20.83;10.93;;;4.80;99.90;;;;;;5054106;28;20219;-74
2022/02/09 23:14:37;;;;;;;21.83;10.70;;;4.80;99.90;;;;;;5051882;28;20579;-74
2022/02/09 23:55:15;;;;;;;18.80;10.40;;;4.80;99.90;;;;;;4961448;28;20191;-72
2022/02/09 23:58:24;;;;;;;20.67;10.47;;;4.80;99.90;;;;;;4961210;28;20209;-73
